ADDS METAR Data INFO
IDs: Format: Raw Decoded Include TAF

Data at: 2253 UTC 16 Jan 2018

KLHZ 162235Z AUTO 00000KT 10SM CLR 02/M05 A3037 RMK AO2
KLHZ 162215Z AUTO 00000KT 10SM CLR 03/M05 A3036 RMK AO2
KLHZ 162155Z AUTO 00000KT 10SM CLR 05/M05 A3036 RMK AO2
KLHZ 162135Z AUTO 17003KT 10SM CLR 06/M06 A3036 RMK AO2
KLHZ 162115Z AUTO 00000KT 10SM CLR 06/M06 A3036 RMK AO2
KLHZ 162055Z AUTO 00000KT 10SM CLR 07/M07 A3037 RMK AO2
KLHZ 162035Z AUTO 19003KT 10SM CLR 07/M07 A3037 RMK AO2
KLHZ 161955Z AUTO 20004KT 10SM CLR 07/M07 A3037 RMK AO2
KLHZ 161935Z AUTO 18005KT 10SM CLR 07/M07 A3037 RMK AO2
KLHZ 161915Z AUTO 00000KT 10SM CLR 07/M07 A3038 RMK AO2
KLHZ 161855Z AUTO 00000KT 10SM CLR 07/M07 A3039 RMK AO2
KLHZ 161835Z AUTO 00000KT 10SM CLR 06/M07 A3040 RMK AO2
KLHZ 161815Z AUTO 00000KT 10SM CLR 06/M07 A3042 RMK AO2
KLHZ 161755Z AUTO 01003KT 10SM CLR 06/M06 A3043 RMK AO2
KLHZ 161715Z AUTO 30003KT 10SM CLR 05/M06 A3046 RMK AO2
KLHZ 161655Z AUTO 28003KT 10SM CLR 05/M06 A3047 RMK AO2
KLHZ 161635Z AUTO 00000KT 10SM CLR 04/M06 A3048 RMK AO2
KLHZ 161615Z AUTO 27004KT 10SM CLR 03/M06 A3050 RMK AO2
KLHZ 161555Z AUTO 00000KT 10SM CLR 02/M05 A3050 RMK AO2
KLHZ 161535Z AUTO 00000KT 10SM CLR 02/M05 A3051 RMK AO2
KLHZ 161515Z AUTO 00000KT 10SM CLR 01/M05 A3051 RMK AO2
KLHZ 161455Z AUTO 00000KT 10SM CLR 00/M05 A3051 RMK AO2
KLHZ 161435Z AUTO 00000KT 10SM CLR 00/M05 A3050 RMK AO2
KLHZ 161415Z AUTO 00000KT 10SM CLR M01/M05 A3050 RMK AO2
KLHZ 161355Z AUTO 00000KT 7SM CLR M02/M05 A3049 RMK AO2
KLHZ 161335Z AUTO 00000KT 10SM CLR M04/M06 A3049 RMK AO2
KLHZ 161315Z AUTO 00000KT 10SM CLR M05/M07 A3049 RMK AO2
KLHZ 161255Z AUTO 00000KT 10SM CLR M07/M07 A3048 RMK AO2
KLHZ 161235Z AUTO 00000KT 7SM CLR M07/M08 A3048 RMK AO2
KLHZ 161215Z AUTO 00000KT 7SM CLR M07/M07 A3048 RMK AO2
KLHZ 161155Z AUTO 00000KT 10SM CLR M07/M07 A3048 RMK AO2
KLHZ 161115Z AUTO 00000KT 10SM CLR M07/M08 A3048 RMK AO2
KLHZ 160935Z AUTO 00000KT 10SM CLR M07/M07 A3048 RMK AO2
KLHZ 160915Z AUTO 00000KT 10SM CLR M06/M07 A3047 RMK AO2
KLHZ 160855Z AUTO 00000KT 10SM CLR M06/M07 A3048 RMK AO2
KLHZ 160815Z AUTO 00000KT 10SM CLR M05/M07 A3047 RMK AO2
KLHZ 160755Z AUTO 00000KT 10SM CLR M05/M07 A3046 RMK AO2
KLHZ 160735Z AUTO 31003KT 10SM CLR M05/M07 A3046 RMK AO2
KLHZ 160715Z AUTO 31003KT 10SM CLR M04/M07 A3046 RMK AO2
KLHZ 160655Z AUTO 31003KT 10SM CLR M05/M06 A3046 RMK AO2
KLHZ 160515Z AUTO 00000KT 10SM CLR M05/M07 A3048 RMK AO2
KLHZ 160455Z AUTO 00000KT 10SM CLR M05/M06 A3049 RMK AO2
KLHZ 160435Z AUTO 00000KT 10SM CLR M05/M07 A3048 RMK AO2
KLHZ 160415Z AUTO 00000KT 10SM CLR M05/M06 A3048 RMK AO2
KLHZ 160355Z AUTO 00000KT 10SM CLR M05/M07 A3049 RMK AO2
KLHZ 160335Z AUTO 00000KT 10SM CLR M05/M06 A3050 RMK AO2
KLHZ 160315Z AUTO 00000KT 10SM CLR M04/M07 A3049 RMK AO2
KLHZ 160255Z AUTO 00000KT 10SM CLR M04/M07 A3050 RMK AO2
KLHZ 160235Z AUTO 00000KT 10SM CLR M04/M06 A3050 RMK AO2
KLHZ 160215Z AUTO 00000KT 10SM CLR M04/M06 A3050 RMK AO2
KLHZ 160155Z AUTO 00000KT 10SM CLR M03/M06 A3050 RMK AO2
KLHZ 160135Z AUTO 00000KT 10SM CLR M03/M07 A3050 RMK AO2
KLHZ 160115Z AUTO 00000KT 10SM CLR M03/M07 A3049 RMK AO2
KLHZ 160055Z AUTO 00000KT 10SM CLR M03/M07 A3048 RMK AO2
KLHZ 160035Z AUTO 00000KT 10SM CLR M03/M06 A3049 RMK AO2
KLHZ 160015Z AUTO 00000KT 10SM CLR M02/M06 A3049 RMK AO2
KLHZ 152355Z AUTO 00000KT 10SM CLR M02/M07 A3048 RMK AO2
KLHZ 152335Z AUTO 00000KT 10SM CLR M02/M07 A3047 RMK AO2
KLHZ 152315Z AUTO 00000KT 10SM CLR M02/M07 A3048 RMK AO2
KLHZ 152255Z AUTO 00000KT 10SM CLR M01/M07 A3047 RMK AO2
KLHZ 152235Z AUTO 00000KT 10SM CLR M01/M07 A3048 RMK AO2
KLHZ 152215Z AUTO 00000KT 10SM CLR 00/M07 A3046 RMK AO2
KLHZ 152155Z AUTO 02004KT 10SM CLR 02/M07 A3046 RMK AO2
KLHZ 152135Z AUTO 03005KT 10SM CLR 02/M07 A3047 RMK AO2
KLHZ 152115Z AUTO 36005KT 10SM CLR 03/M07 A3045 RMK AO2
KLHZ 152055Z AUTO 01004KT 10SM CLR 03/M07 A3046 RMK AO2
KLHZ 152035Z AUTO 34005KT 10SM CLR 03/M07 A3046 RMK AO2
KLHZ 152015Z AUTO 33004KT 10SM CLR 03/M07 A3047 RMK AO2
KLHZ 151955Z AUTO 00000KT 10SM CLR 03/M06 A3045 RMK AO2
KLHZ 151935Z AUTO 00000KT 10SM CLR 03/M06 A3044 RMK AO2
KLHZ 151915Z AUTO 01004KT 10SM CLR 03/M06 A3045 RMK AO2
KLHZ 151855Z AUTO 35003KT 10SM CLR 02/M07 A3045 RMK AO2
KLHZ 151835Z AUTO 02003KT 10SM CLR 02/M07 A3046 RMK AO2
KLHZ 151815Z AUTO 03004KT 10SM CLR 02/M07 A3046 RMK AO2
KLHZ 151755Z AUTO 00000KT 10SM CLR 01/M08 A3049 RMK AO2
KLHZ 151735Z AUTO 33004KT 10SM CLR 01/M08 A3050 RMK AO2
KLHZ 151715Z AUTO 34005KT 10SM CLR 01/M08 A3053 RMK AO2
KLHZ 151655Z AUTO 35006KT 10SM CLR 00/M09 A3053 RMK AO2
KLHZ 151635Z AUTO 32004KT 10SM CLR 00/M09 A3053 RMK AO2
KLHZ 151615Z AUTO 36005KT 10SM CLR M01/M10 A3055 RMK AO2
KLHZ 151555Z AUTO 36006KT 10SM CLR M01/M10 A3056 RMK AO2
KLHZ 151535Z AUTO 36006KT 10SM CLR M02/M11 A3056 RMK AO2
KLHZ 151515Z AUTO 35005KT 10SM CLR M03/M11 A3057 RMK AO2
KLHZ 151455Z AUTO 36005KT 10SM CLR M03/M11 A3058 RMK AO2
KLHZ 151435Z AUTO 35003KT 10SM CLR M04/M11 A3058 RMK AO2
KLHZ 151415Z AUTO 34006KT 10SM CLR M05/M12 A3058 RMK AO2
KLHZ 151355Z AUTO 34004KT 10SM CLR M05/M12 A3057 RMK AO2
KLHZ 151335Z AUTO 35005KT 10SM CLR M06/M12 A3057 RMK AO2
KLHZ 151315Z AUTO 36005KT 10SM BKN024 M06/M12 A3056 RMK AO2
KLHZ 151255Z AUTO 34004KT 10SM OVC024 M07/M12 A3056 RMK AO2
KLHZ 151235Z AUTO 35004KT 10SM OVC024 M07/M12 A3055 RMK AO2
KLHZ 151215Z AUTO 35005KT 10SM OVC024 M07/M12 A3055 RMK AO2
KLHZ 151155Z AUTO 36004KT 10SM OVC024 M07/M12 A3054 RMK AO2
KLHZ 151135Z AUTO 36005KT 10SM OVC024 M07/M12 A3054 RMK AO2
KLHZ 151115Z AUTO 34004KT 10SM OVC024 M06/M12 A3054 RMK AO2
KLHZ 151055Z AUTO 35004KT 10SM OVC024 M07/M13 A3054 RMK AO2